Time,TemperatureF,DewpointF,PressureIn,WindDirection,WindDirectionDegrees,WindSpeedMPH,WindSpeedGustMPH,Humidity,HourlyPrecipIn,Conditions,Clouds,dailyrainin,SoftwareType,DateUTC
2017-10-18 00:00:00,0.0,0.0,0.12,North,0,0.0,0.0,0,0.00,,,1.44,VWS V15.00,2017-10-18 04:00:00,
2017-10-18 00:05:00,72.4,70.6,30.11,ENE,73,0.0,0.0,94,0.86,,,0.01,VWS V15.00,2017-10-18 04:05:00,
2017-10-18 00:10:00,72.3,70.5,30.11,ENE,78,0.0,0.0,94,0.89,,,0.04,VWS V15.00,2017-10-18 04:10:00,
2017-10-18 00:15:00,72.1,70.3,30.10,ESE,109,0.0,0.0,94,0.58,,,0.07,VWS V15.00,2017-10-18 04:15:00,
2017-10-18 00:20:00,71.9,70.1,30.10,NE,40,0.0,0.0,94,0.61,,,0.10,VWS V15.00,2017-10-18 04:20:00,
2017-10-18 00:26:00,71.8,70.0,30.10,NE,49,0.0,0.0,94,0.62,,,0.11,VWS V15.00,2017-10-18 04:26:00,
2017-10-18 00:30:00,71.8,70.0,30.10,ENE,70,0.0,0.0,94,0.35,,,0.11,VWS V15.00,2017-10-18 04:30:00,
2017-10-18 00:32:00,71.8,70.0,30.10,ESE,109,0.0,0.0,94,0.35,,,0.11,VWS V15.00,2017-10-18 04:32:00,
2017-10-18 00:37:00,72.1,70.3,30.10,NE,50,0.0,0.0,94,0.35,,,0.11,VWS V15.00,2017-10-18 04:37:00,
2017-10-18 00:42:00,72.4,70.6,30.10,East,98,0.0,0.0,94,0.35,,,0.11,VWS V15.00,2017-10-18 04:42:00,
2017-10-18 00:47:00,72.9,71.1,30.10,East,96,0.0,0.0,94,0.31,,,0.11,VWS V15.00,2017-10-18 04:47:00,
2017-10-18 00:52:00,73.3,71.2,30.10,NE,54,0.0,0.0,93,0.31,,,0.11,VWS V15.00,2017-10-18 04:52:00,
2017-10-18 00:57:00,73.1,71.0,30.10,ENE,66,0.0,0.0,93,0.31,,,0.11,VWS V15.00,2017-10-18 04:57:00,
2017-10-18 01:02:00,72.9,70.4,30.10,East,89,0.0,0.0,92,0.11,,,0.11,VWS V15.00,2017-10-18 05:02:00,
2017-10-18 01:07:00,73.1,70.6,30.10,East,83,0.0,0.0,92,0.11,,,0.11,VWS V15.00,2017-10-18 05:07:00,
2017-10-18 01:12:00,73.3,70.8,30.10,ESE,105,0.0,0.0,92,0.11,,,0.11,VWS V15.00,2017-10-18 05:12:00,
2017-10-18 01:17:00,73.5,71.0,30.10,NE,49,0.0,0.0,92,0.04,,,0.11,VWS V15.00,2017-10-18 05:17:00,
2017-10-18 01:22:00,73.5,70.7,30.10,SE,133,0.0,0.0,91,0.04,,,0.11,VWS V15.00,2017-10-18 05:22:00,
2017-10-18 01:27:00,73.0,69.9,30.10,SE,139,0.0,0.0,90,0.04,,,0.11,VWS V15.00,2017-10-18 05:27:00,
2017-10-18 01:32:00,73.0,70.5,30.10,ESE,117,0.0,0.0,92,0.00,,,0.11,VWS V15.00,2017-10-18 05:32:00,
2017-10-18 01:37:00,73.1,70.6,30.10,East,90,0.0,0.0,92,0.00,,,0.11,VWS V15.00,2017-10-18 05:37:00,
2017-10-18 01:42:00,73.1,70.3,30.10,East,101,0.0,0.0,91,0.00,,,0.11,VWS V15.00,2017-10-18 05:42:00,
2017-10-18 01:47:00,73.3,70.8,30.10,ENE,60,0.0,0.0,92,0.00,,,0.11,VWS V15.00,2017-10-18 05:47:00,
2017-10-18 01:52:00,73.6,71.1,30.10,East,89,0.0,0.0,92,0.00,,,0.11,VWS V15.00,2017-10-18 05:52:00,
2017-10-18 01:53:00,73.6,71.1,30.10,East,82,0.0,0.0,92,0.00,,,0.11,VWS V15.00,2017-10-18 05:53:00,
2017-10-18 01:58:00,73.9,71.1,30.10,ENE,63,0.0,0.0,91,0.00,,,0.11,VWS V15.00,2017-10-18 05:58:00,
2017-10-18 02:03:00,74.1,71.3,30.10,ENE,68,0.0,0.0,91,0.00,,,0.11,VWS V15.00,2017-10-18 06:03:00,
2017-10-18 02:08:00,74.2,71.4,30.10,East,88,0.0,0.0,91,0.00,,,0.11,VWS V15.00,2017-10-18 06:08:00,
2017-10-18 02:13:00,74.4,71.6,30.10,ESE,123,0.0,0.0,91,0.00,,,0.11,VWS V15.00,2017-10-18 06:13:00,
2017-10-18 02:18:00,74.3,71.2,30.09,NE,51,0.0,0.0,90,0.00,,,0.11,VWS V15.00,2017-10-18 06:18:00,
2017-10-18 02:23:00,73.9,71.1,30.09,ENE,60,0.0,0.0,91,0.00,,,0.11,VWS V15.00,2017-10-18 06:23:00,
2017-10-18 02:28:00,73.5,70.7,30.09,ESE,105,0.0,0.0,91,0.00,,,0.11,VWS V15.00,2017-10-18 06:28:00,
2017-10-18 02:33:00,73.1,70.3,30.09,East,97,0.0,0.0,91,0.01,,,0.12,VWS V15.00,2017-10-18 06:33:00,
2017-10-18 02:38:00,73.3,70.5,30.09,East,86,0.0,0.0,91,0.01,,,0.12,VWS V15.00,2017-10-18 06:38:00,
2017-10-18 02:43:00,73.8,71.0,30.09,ENE,67,0.0,0.0,91,0.01,,,0.12,VWS V15.00,2017-10-18 06:43:00,
2017-10-18 02:48:00,74.0,71.2,30.08,East,101,0.0,0.0,91,0.01,,,0.12,VWS V15.00,2017-10-18 06:48:00,
2017-10-18 02:53:00,74.0,70.9,30.08,SE,130,0.0,0.0,90,0.01,,,0.12,VWS V15.00,2017-10-18 06:53:00,
2017-10-18 02:58:00,74.1,71.3,30.08,NE,53,0.0,0.0,91,0.01,,,0.12,VWS V15.00,2017-10-18 06:58:00,
2017-10-18 03:03:00,74.1,71.0,30.08,ESE,107,0.0,0.0,90,0.01,,,0.12,VWS V15.00,2017-10-18 07:03:00,
2017-10-18 03:08:00,74.3,71.2,30.08,ESE,105,0.0,0.0,90,0.01,,,0.12,VWS V15.00,2017-10-18 07:08:00,
2017-10-18 03:13:00,74.3,71.2,30.08,ESE,103,0.0,0.0,90,0.01,,,0.12,VWS V15.00,2017-10-18 07:13:00,
2017-10-18 03:18:00,74.2,71.1,30.08,East,86,0.0,0.0,90,0.01,,,0.12,VWS V15.00,2017-10-18 07:18:00,
2017-10-18 03:23:00,74.2,71.1,30.08,ESE,111,0.0,0.0,90,0.01,,,0.12,VWS V15.00,2017-10-18 07:23:00,
2017-10-18 03:28:00,74.2,71.1,30.08,SE,144,0.0,0.0,90,0.01,,,0.12,VWS V15.00,2017-10-18 07:28:00,
2017-10-18 03:33:00,74.1,71.0,30.08,SE,128,0.0,0.0,90,0.00,,,0.12,VWS V15.00,2017-10-18 07:33:00,
2017-10-18 03:38:00,74.0,70.9,30.08,ESE,112,0.0,0.0,90,0.00,,,0.12,VWS V15.00,2017-10-18 07:38:00,
2017-10-18 03:44:00,74.1,71.0,30.08,East,84,0.0,0.0,90,0.00,,,0.12,VWS V15.00,2017-10-18 07:44:00,
2017-10-18 03:49:00,74.1,71.3,30.07,ENE,73,0.0,0.0,91,0.00,,,0.12,VWS V15.00,2017-10-18 07:49:00,
2017-10-18 03:54:00,74.1,71.3,30.07,ENE,67,0.0,0.0,91,0.00,,,0.12,VWS V15.00,2017-10-18 07:54:00,
2017-10-18 03:59:00,74.0,71.2,30.07,ENE,67,0.0,0.0,91,0.00,,,0.12,VWS V15.00,2017-10-18 07:59:00,
2017-10-18 04:04:00,73.9,71.4,30.07,ENE,67,0.0,0.0,92,0.00,,,0.12,VWS V15.00,2017-10-18 08:04:00,
2017-10-18 04:09:00,73.8,71.3,30.07,ENE,57,0.0,0.0,92,0.00,,,0.12,VWS V15.00,2017-10-18 08:09:00,
2017-10-18 04:14:00,73.6,71.5,30.07,East,83,0.0,0.0,93,0.01,,,0.13,VWS V15.00,2017-10-18 08:14:00,
2017-10-18 04:19:00,73.2,70.7,30.07,SE,141,0.0,0.0,92,0.02,,,0.14,VWS V15.00,2017-10-18 08:19:00,
2017-10-18 04:24:00,72.8,70.3,30.07,ESE,103,0.0,0.0,92,0.04,,,0.16,VWS V15.00,2017-10-18 08:24:00,
2017-10-18 04:29:00,72.5,70.1,30.07,ESE,102,0.0,0.0,92,0.04,,,0.16,VWS V15.00,2017-10-18 08:29:00,
2017-10-18 04:34:00,72.4,70.3,30.06,North,351,0.0,0.0,93,0.04,,,0.16,VWS V15.00,2017-10-18 08:34:00,
2017-10-18 04:39:00,72.2,70.1,30.06,NNW,330,0.0,0.0,93,0.04,,,0.16,VWS V15.00,2017-10-18 08:39:00,
2017-10-18 04:44:00,72.1,70.0,30.06,ENE,59,0.0,0.0,93,0.04,,,0.16,VWS V15.00,2017-10-18 08:44:00,
2017-10-18 04:49:00,71.0,68.6,30.08,ENE,75,0.0,0.0,92,0.11,,,0.23,VWS V15.00,2017-10-18 08:49:00,
2017-10-18 04:54:00,71.0,69.2,30.08,NE,54,0.0,0.0,94,0.18,,,0.30,VWS V15.00,2017-10-18 08:54:00,
2017-10-18 04:59:00,71.2,69.4,30.08,ENE,78,0.0,0.0,94,0.21,,,0.33,VWS V15.00,2017-10-18 08:59:00,
2017-10-18 05:04:00,71.3,69.8,30.08,ENE,65,0.0,0.0,95,0.34,,,0.46,VWS V15.00,2017-10-18 09:04:00,
2017-10-18 05:09:00,71.7,70.2,30.08,East,84,0.0,0.0,95,0.41,,,0.53,VWS V15.00,2017-10-18 09:09:00,
2017-10-18 05:19:00,72.1,70.6,30.08,SE,138,0.0,0.0,95,0.59,,,0.72,VWS V15.00,2017-10-18 09:19:00,
2017-10-18 05:24:00,71.9,70.4,30.08,SE,130,0.0,0.0,95,0.66,,,0.79,VWS V15.00,2017-10-18 09:24:00,
2017-10-18 05:29:00,72.0,70.5,30.08,SE,141,0.0,0.0,95,0.67,,,0.80,VWS V15.00,2017-10-18 09:29:00,
2017-10-18 05:34:00,72.1,70.6,30.08,ESE,121,0.0,0.0,95,0.64,,,0.80,VWS V15.00,2017-10-18 09:34:00,
2017-10-18 05:39:00,72.2,70.7,30.08,SE,143,0.0,0.0,95,0.64,,,0.80,VWS V15.00,2017-10-18 09:39:00,
2017-10-18 05:44:00,72.2,71.0,30.08,SSE,147,0.0,0.0,96,0.64,,,0.80,VWS V15.00,2017-10-18 09:44:00,
2017-10-18 05:49:00,72.2,70.7,30.08,SE,134,0.0,0.0,95,0.62,,,0.80,VWS V15.00,2017-10-18 09:49:00,
2017-10-18 05:54:00,72.1,70.6,30.08,ESE,123,0.0,0.0,95,0.62,,,0.80,VWS V15.00,2017-10-18 09:54:00,
2017-10-18 05:59:00,72.2,70.7,30.08,SSE,166,0.0,0.0,95,0.62,,,0.80,VWS V15.00,2017-10-18 09:59:00,
2017-10-18 06:04:00,72.5,71.3,30.08,ESE,114,0.0,0.0,96,0.40,,,0.80,VWS V15.00,2017-10-18 10:04:00,
2017-10-18 06:09:00,73.0,71.8,30.08,ENE,68,0.0,0.0,96,0.40,,,0.80,VWS V15.00,2017-10-18 10:09:00,
2017-10-18 06:14:00,73.4,72.2,30.08,SE,130,0.0,0.0,96,0.40,,,0.80,VWS V15.00,2017-10-18 10:14:00,
2017-10-18 06:19:00,73.6,72.4,30.08,ESE,123,0.0,0.0,96,0.16,,,0.80,VWS V15.00,2017-10-18 10:19:00,
2017-10-18 06:25:00,73.9,72.4,30.08,ENE,76,0.0,0.0,95,0.16,,,0.80,VWS V15.00,2017-10-18 10:25:00,
2017-10-18 06:30:00,73.4,71.6,30.09,ENE,69,0.0,0.0,94,0.16,,,0.80,VWS V15.00,2017-10-18 10:30:00,
2017-10-18 06:35:00,73.3,71.2,30.09,ESE,105,0.0,0.0,93,0.00,,,0.80,VWS V15.00,2017-10-18 10:35:00,
2017-10-18 06:40:00,73.6,71.5,30.09,ENE,74,0.0,0.0,93,0.00,,,0.80,VWS V15.00,2017-10-18 10:40:00,
2017-10-18 06:45:00,73.8,71.7,30.09,East,83,0.0,0.0,93,0.00,,,0.80,VWS V15.00,2017-10-18 10:45:00,
2017-10-18 06:50:00,73.9,71.8,30.09,East,92,0.0,0.0,93,0.00,,,0.80,VWS V15.00,2017-10-18 10:50:00,
2017-10-18 06:55:00,73.8,71.3,30.09,ENE,76,0.0,0.0,92,0.00,,,0.80,VWS V15.00,2017-10-18 10:55:00,
2017-10-18 07:00:00,73.4,70.9,30.09,East,92,0.0,0.0,92,0.01,,,0.81,VWS V15.00,2017-10-18 11:00:00,
2017-10-18 07:05:00,73.1,70.6,30.09,ESE,112,0.0,0.0,92,0.02,,,0.82,VWS V15.00,2017-10-18 11:05:00,
2017-10-18 07:10:00,73.0,70.9,30.09,ESE,117,0.0,0.0,93,0.02,,,0.82,VWS V15.00,2017-10-18 11:10:00,
2017-10-18 07:15:00,73.1,71.0,30.09,ESE,102,0.0,0.0,93,0.02,,,0.82,VWS V15.00,2017-10-18 11:15:00,
2017-10-18 07:20:00,73.3,71.2,30.09,SE,130,0.0,0.0,93,0.02,,,0.82,VWS V15.00,2017-10-18 11:20:00,
2017-10-18 07:25:00,73.7,71.6,30.09,East,88,0.0,0.0,93,0.02,,,0.82,VWS V15.00,2017-10-18 11:25:00,
2017-10-18 07:30:00,74.6,71.8,30.10,East,91,0.0,0.0,91,0.02,,,0.82,VWS V15.00,2017-10-18 11:30:00,
2017-10-18 07:35:00,75.2,72.1,30.10,SE,126,0.0,0.0,90,0.02,,,0.82,VWS V15.00,2017-10-18 11:35:00,
2017-10-18 07:40:00,76.0,71.9,30.10,East,82,0.0,0.0,87,0.02,,,0.82,VWS V15.00,2017-10-18 11:40:00,
2017-10-18 07:45:00,76.3,72.2,30.10,East,88,0.0,0.0,87,0.02,,,0.82,VWS V15.00,2017-10-18 11:45:00,
2017-10-18 07:55:00,76.7,71.5,30.10,ESE,102,0.0,0.0,84,0.02,,,0.82,VWS V15.00,2017-10-18 11:55:00,
2017-10-18 08:00:00,76.9,70.6,30.11,ENE,57,0.0,0.0,81,0.02,,,0.82,VWS V15.00,2017-10-18 12:00:00,
2017-10-18 08:05:00,77.3,70.7,30.11,NE,53,0.0,0.0,80,0.01,,,0.82,VWS V15.00,2017-10-18 12:05:00,
2017-10-18 08:10:00,77.4,70.4,30.11,ESE,106,0.0,0.0,79,0.01,,,0.82,VWS V15.00,2017-10-18 12:10:00,
2017-10-18 08:15:00,77.5,69.7,30.11,East,98,0.0,0.0,77,0.01,,,0.82,VWS V15.00,2017-10-18 12:15:00,
2017-10-18 08:20:00,77.6,69.8,30.11,ENE,71,0.0,0.0,77,0.00,,,0.82,VWS V15.00,2017-10-18 12:20:00,
2017-10-18 08:25:00,77.8,69.6,30.11,NNE,32,0.0,0.0,76,0.00,,,0.82,VWS V15.00,2017-10-18 12:25:00,
2017-10-18 08:30:00,77.9,69.7,30.11,ENE,74,0.0,0.0,76,0.00,,,0.82,VWS V15.00,2017-10-18 12:30:00,
2017-10-18 08:35:00,78.1,69.9,30.11,ENE,65,0.0,0.0,76,0.00,,,0.82,VWS V15.00,2017-10-18 12:35:00,
2017-10-18 08:40:00,78.1,69.5,30.11,ENE,76,0.0,0.0,75,0.00,,,0.82,VWS V15.00,2017-10-18 12:40:00,
2017-10-18 08:45:00,78.2,69.6,30.12,ENE,74,0.0,0.0,75,0.00,,,0.82,VWS V15.00,2017-10-18 12:45:00,
2017-10-18 08:50:00,78.2,69.6,30.12,ENE,58,0.0,0.0,75,0.00,,,0.82,VWS V15.00,2017-10-18 12:50:00,
2017-10-18 08:55:00,78.2,69.2,30.12,East,81,0.0,0.0,74,0.00,,,0.82,VWS V15.00,2017-10-18 12:55:00,
2017-10-18 09:00:00,78.3,69.7,30.12,ENE,65,0.0,0.0,75,0.00,,,0.82,VWS V15.00,2017-10-18 13:00:00,
2017-10-18 09:05:00,78.4,69.8,30.12,ESE,117,0.0,0.0,75,0.00,,,0.82,VWS V15.00,2017-10-18 13:05:00,
2017-10-18 09:10:00,78.4,69.8,30.12,East,87,0.0,0.0,75,0.00,,,0.82,VWS V15.00,2017-10-18 13:10:00,
2017-10-18 09:15:00,78.4,69.8,30.12,East,85,0.0,0.0,75,0.00,,,0.82,VWS V15.00,2017-10-18 13:15:00,
2017-10-18 09:20:00,78.4,69.4,30.12,East,98,0.0,0.0,74,0.00,,,0.82,VWS V15.00,2017-10-18 13:20:00,
2017-10-18 09:25:00,78.5,69.5,30.12,ENE,74,0.0,0.0,74,0.00,,,0.82,VWS V15.00,2017-10-18 13:25:00,
2017-10-18 09:30:00,78.5,69.9,30.13,NE,51,0.0,0.0,75,0.00,,,0.82,VWS V15.00,2017-10-18 13:30:00,
2017-10-18 09:35:00,78.4,69.4,30.13,ESE,104,0.0,0.0,74,0.00,,,0.82,VWS V15.00,2017-10-18 13:35:00,
2017-10-18 09:40:00,78.4,69.0,30.13,ENE,75,0.0,0.0,73,0.00,,,0.82,VWS V15.00,2017-10-18 13:40:00,
2017-10-18 09:45:00,78.5,69.9,30.14,ENE,60,0.0,0.0,75,0.00,,,0.82,VWS V15.00,2017-10-18 13:45:00,
2017-10-18 09:50:00,78.5,69.5,30.14,ENE,74,0.0,0.0,74,0.00,,,0.82,VWS V15.00,2017-10-18 13:50:00,
2017-10-18 09:56:00,78.6,70.0,30.14,ESE,123,0.0,0.0,75,0.00,,,0.82,VWS V15.00,2017-10-18 13:56:00,
2017-10-18 10:01:00,78.6,69.6,30.15,ENE,74,0.0,0.0,74,0.00,,,0.82,VWS V15.00,2017-10-18 14:01:00,